sensor_id;sensor_type;location;lat;lon;timestamp;P1;durP1;ratioP1;P2;durP2;ratioP2
8088;SDS011;57635;49.194;12.104;2023-02-23T00:01:40;16.00;;;14.50;;
8088;SDS011;57635;49.194;12.104;2023-02-23T00:04:08;15.27;;;13.97;;
8088;SDS011;57635;49.194;12.104;2023-02-23T00:06:37;16.40;;;15.00;;
8088;SDS011;57635;49.194;12.104;2023-02-23T00:09:05;16.10;;;14.67;;
8088;SDS011;57635;49.194;12.104;2023-02-23T00:11:37;16.47;;;14.90;;
8088;SDS011;57635;49.194;12.104;2023-02-23T00:14:05;15.80;;;14.30;;
8088;SDS011;57635;49.194;12.104;2023-02-23T00:16:33;14.87;;;13.63;;
8088;SDS011;57635;49.194;12.104;2023-02-23T00:19:02;15.03;;;13.70;;
8088;SDS011;57635;49.194;12.104;2023-02-23T00:21:33;16.23;;;14.83;;
8088;SDS011;57635;49.194;12.104;2023-02-23T00:24:03;16.37;;;14.87;;
8088;SDS011;57635;49.194;12.104;2023-02-23T00:26:34;16.30;;;14.80;;
8088;SDS011;57635;49.194;12.104;2023-02-23T00:29:04;13.23;;;12.03;;
8088;SDS011;57635;49.194;12.104;2023-02-23T00:31:33;13.97;;;12.77;;
8088;SDS011;57635;49.194;12.104;2023-02-23T00:34:04;11.77;;;10.87;;
8088;SDS011;57635;49.194;12.104;2023-02-23T00:36:33;11.50;;;10.53;;
8088;SDS011;57635;49.194;12.104;2023-02-23T00:39:04;11.67;;;10.67;;
8088;SDS011;57635;49.194;12.104;2023-02-23T00:41:43;10.93;;;10.03;;
8088;SDS011;57635;49.194;12.104;2023-02-23T00:44:11;12.07;;;11.07;;
8088;SDS011;57635;49.194;12.104;2023-02-23T00:46:40;12.20;;;11.20;;
8088;SDS011;57635;49.194;12.104;2023-02-23T00:49:09;14.67;;;13.37;;
8088;SDS011;57635;49.194;12.104;2023-02-23T00:51:38;15.33;;;13.90;;
8088;SDS011;57635;49.194;12.104;2023-02-23T00:54:09;14.30;;;12.97;;
8088;SDS011;57635;49.194;12.104;2023-02-23T00:56:38;15.13;;;13.70;;
8088;SDS011;57635;49.194;12.104;2023-02-23T00:59:06;14.53;;;13.07;;
8088;SDS011;57635;49.194;12.104;2023-02-23T01:01:34;13.17;;;11.93;;
8088;SDS011;57635;49.194;12.104;2023-02-23T01:04:02;12.07;;;10.97;;
8088;SDS011;57635;49.194;12.104;2023-02-23T01:06:30;12.07;;;10.93;;
8088;SDS011;57635;49.194;12.104;2023-02-23T01:08:58;12.97;;;11.77;;
8088;SDS011;57635;49.194;12.104;2023-02-23T01:11:31;11.60;;;10.53;;
8088;SDS011;57635;49.194;12.104;2023-02-23T01:13:59;10.80;;;9.93;;
8088;SDS011;57635;49.194;12.104;2023-02-23T01:16:28;10.93;;;9.90;;
8088;SDS011;57635;49.194;12.104;2023-02-23T01:18:57;10.40;;;9.60;;
8088;SDS011;57635;49.194;12.104;2023-02-23T01:21:27;10.43;;;9.53;;
8088;SDS011;57635;49.194;12.104;2023-02-23T01:23:56;10.87;;;9.87;;
8088;SDS011;57635;49.194;12.104;2023-02-23T01:26:24;12.33;;;11.23;;
8088;SDS011;57635;49.194;12.104;2023-02-23T01:28:55;12.23;;;11.13;;
8088;SDS011;57635;49.194;12.104;2023-02-23T01:31:24;11.77;;;10.77;;
8088;SDS011;57635;49.194;12.104;2023-02-23T01:33:54;12.23;;;11.13;;
8088;SDS011;57635;49.194;12.104;2023-02-23T01:36:23;13.37;;;12.17;;
8088;SDS011;57635;49.194;12.104;2023-02-23T01:38:51;13.87;;;12.67;;
8088;SDS011;57635;49.194;12.104;2023-02-23T01:41:20;13.70;;;12.50;;
8088;SDS011;57635;49.194;12.104;2023-02-23T01:43:56;13.10;;;12.00;;
8088;SDS011;57635;49.194;12.104;2023-02-23T01:46:24;12.40;;;11.23;;
8088;SDS011;57635;49.194;12.104;2023-02-23T01:48:52;12.20;;;11.10;;
8088;SDS011;57635;49.194;12.104;2023-02-23T01:51:22;12.77;;;11.57;;
8088;SDS011;57635;49.194;12.104;2023-02-23T01:53:53;12.73;;;11.63;;
8088;SDS011;57635;49.194;12.104;2023-02-23T01:56:23;12.27;;;11.27;;
8088;SDS011;57635;49.194;12.104;2023-02-23T01:58:52;12.40;;;11.27;;
8088;SDS011;57635;49.194;12.104;2023-02-23T02:01:23;10.90;;;10.07;;
8088;SDS011;57635;49.194;12.104;2023-02-23T02:03:52;12.00;;;10.93;;
8088;SDS011;57635;49.194;12.104;2023-02-23T02:06:22;11.60;;;10.50;;
8088;SDS011;57635;49.194;12.104;2023-02-23T02:08:55;11.43;;;10.43;;
8088;SDS011;57635;49.194;12.104;2023-02-23T02:11:24;12.27;;;11.27;;
8088;SDS011;57635;49.194;12.104;2023-02-23T02:13:57;11.50;;;10.43;;
8088;SDS011;57635;49.194;12.104;2023-02-23T02:16:31;11.20;;;10.30;;
8088;SDS011;57635;49.194;12.104;2023-02-23T02:25:30;11.60;;;10.70;;
8088;SDS011;57635;49.194;12.104;2023-02-23T02:28:13;12.27;;;11.30;;
8088;SDS011;57635;49.194;12.104;2023-02-23T02:34:17;13.37;;;12.20;;
8088;SDS011;57635;49.194;12.104;2023-02-23T02:37:17;13.67;;;12.40;;
8088;SDS011;57635;49.194;12.104;2023-02-23T02:39:48;13.57;;;12.37;;
8088;SDS011;57635;49.194;12.104;2023-02-23T02:42:21;13.43;;;12.20;;
8088;SDS011;57635;49.194;12.104;2023-02-23T02:44:54;13.40;;;12.20;;
8088;SDS011;57635;49.194;12.104;2023-02-23T02:47:27;12.73;;;11.67;;
8088;SDS011;57635;49.194;12.104;2023-02-23T02:50:01;12.40;;;11.20;;
8088;SDS011;57635;49.194;12.104;2023-02-23T02:52:34;12.57;;;11.57;;
8088;SDS011;57635;49.194;12.104;2023-02-23T02:55:05;13.13;;;11.87;;
8088;SDS011;57635;49.194;12.104;2023-02-23T02:57:38;12.63;;;11.53;;
8088;SDS011;57635;49.194;12.104;2023-02-23T03:00:06;13.77;;;12.57;;
8088;SDS011;57635;49.194;12.104;2023-02-23T03:02:52;13.57;;;12.00;;
8088;SDS011;57635;49.194;12.104;2023-02-23T03:05:40;14.20;;;13.00;;
8088;SDS011;57635;49.194;12.104;2023-02-23T03:08:30;12.37;;;11.27;;
8088;SDS011;57635;49.194;12.104;2023-02-23T03:11:17;12.00;;;11.00;;
8088;SDS011;57635;49.194;12.104;2023-02-23T03:14:07;12.23;;;11.23;;
8088;SDS011;57635;49.194;12.104;2023-02-23T03:17:01;12.13;;;11.10;;
8088;SDS011;57635;49.194;12.104;2023-02-23T03:19:51;12.33;;;11.20;;
8088;SDS011;57635;49.194;12.104;2023-02-23T03:22:41;11.07;;;9.97;;
8088;SDS011;57635;49.194;12.104;2023-02-23T03:25:33;11.57;;;10.47;;
8088;SDS011;57635;49.194;12.104;2023-02-23T03:28:26;10.23;;;9.43;;
8088;SDS011;57635;49.194;12.104;2023-02-23T03:31:17;11.27;;;10.27;;
8088;SDS011;57635;49.194;12.104;2023-02-23T03:34:07;11.73;;;10.73;;
8088;SDS011;57635;49.194;12.104;2023-02-23T03:36:54;11.97;;;10.97;;
8088;SDS011;57635;49.194;12.104;2023-02-23T03:39:45;12.67;;;11.50;;
8088;SDS011;57635;49.194;12.104;2023-02-23T03:42:34;11.53;;;10.53;;
8088;SDS011;57635;49.194;12.104;2023-02-23T03:45:21;11.87;;;10.77;;
8088;SDS011;57635;49.194;12.104;2023-02-23T03:48:09;11.33;;;10.27;;
8088;SDS011;57635;49.194;12.104;2023-02-23T03:50:57;10.17;;;9.30;;
8088;SDS011;57635;49.194;12.104;2023-02-23T03:53:46;10.30;;;9.50;;
8088;SDS011;57635;49.194;12.104;2023-02-23T03:56:35;10.23;;;9.33;;
8088;SDS011;57635;49.194;12.104;2023-02-23T03:59:27;11.20;;;10.30;;
8088;SDS011;57635;49.194;12.104;2023-02-23T04:02:14;12.00;;;10.93;;
8088;SDS011;57635;49.194;12.104;2023-02-23T04:05:02;11.20;;;10.23;;
8088;SDS011;57635;49.194;12.104;2023-02-23T04:07:50;10.70;;;9.90;;
8088;SDS011;57635;49.194;12.104;2023-02-23T04:10:38;11.00;;;10.10;;
8088;SDS011;57635;49.194;12.104;2023-02-23T04:13:27;12.27;;;11.17;;
8088;SDS011;57635;49.194;12.104;2023-02-23T04:15:56;11.13;;;10.23;;
8088;SDS011;57635;49.194;12.104;2023-02-23T04:18:26;10.87;;;9.87;;
8088;SDS011;57635;49.194;12.104;2023-02-23T04:20:56;11.70;;;10.67;;
8088;SDS011;57635;49.194;12.104;2023-02-23T04:23:24;11.70;;;10.63;;
8088;SDS011;57635;49.194;12.104;2023-02-23T04:25:52;10.47;;;9.47;;
8088;SDS011;57635;49.194;12.104;2023-02-23T04:28:21;11.50;;;10.43;;
8088;SDS011;57635;49.194;12.104;2023-02-23T04:30:49;10.70;;;9.67;;
8088;SDS011;57635;49.194;12.104;2023-02-23T04:33:19;10.47;;;9.60;;
8088;SDS011;57635;49.194;12.104;2023-02-23T04:35:47;10.87;;;9.63;;
8088;SDS011;57635;49.194;12.104;2023-02-23T04:38:15;11.57;;;10.67;;
8088;SDS011;57635;49.194;12.104;2023-02-23T04:40:43;10.70;;;9.87;;
8088;SDS011;57635;49.194;12.104;2023-02-23T04:43:11;10.97;;;10.07;;
8088;SDS011;57635;49.194;12.104;2023-02-23T04:45:39;11.53;;;10.63;;
8088;SDS011;57635;49.194;12.104;2023-02-23T04:48:07;10.23;;;9.43;;
8088;SDS011;57635;49.194;12.104;2023-02-23T04:50:36;10.63;;;9.53;;
8088;SDS011;57635;49.194;12.104;2023-02-23T04:53:04;10.23;;;9.33;;
8088;SDS011;57635;49.194;12.104;2023-02-23T04:55:31;10.37;;;9.47;;
8088;SDS011;57635;49.194;12.104;2023-02-23T04:57:59;10.13;;;9.23;;
8088;SDS011;57635;49.194;12.104;2023-02-23T05:00:28;11.50;;;10.50;;
8088;SDS011;57635;49.194;12.104;2023-02-23T05:02:56;10.63;;;9.83;;
8088;SDS011;57635;49.194;12.104;2023-02-23T05:05:24;10.63;;;9.83;;
8088;SDS011;57635;49.194;12.104;2023-02-23T05:07:53;11.20;;;10.30;;
8088;SDS011;57635;49.194;12.104;2023-02-23T05:10:20;11.67;;;10.57;;
8088;SDS011;57635;49.194;12.104;2023-02-23T05:12:48;12.37;;;11.20;;
8088;SDS011;57635;49.194;12.104;2023-02-23T05:15:16;11.63;;;10.63;;
8088;SDS011;57635;49.194;12.104;2023-02-23T05:17:44;12.43;;;11.17;;
8088;SDS011;57635;49.194;12.104;2023-02-23T05:20:13;11.97;;;10.87;;
8088;SDS011;57635;49.194;12.104;2023-02-23T05:22:41;12.30;;;11.20;;
8088;SDS011;57635;49.194;12.104;2023-02-23T05:25:10;11.60;;;10.60;;
8088;SDS011;57635;49.194;12.104;2023-02-23T05:27:38;11.47;;;10.57;;
8088;SDS011;57635;49.194;12.104;2023-02-23T05:30:06;11.20;;;10.20;;
8088;SDS011;57635;49.194;12.104;2023-02-23T05:32:35;11.90;;;10.83;;
8088;SDS011;57635;49.194;12.104;2023-02-23T05:35:02;13.17;;;11.97;;
8088;SDS011;57635;49.194;12.104;2023-02-23T05:37:30;12.63;;;11.53;;
8088;SDS011;57635;49.194;12.104;2023-02-23T05:39:58;14.10;;;12.80;;
8088;SDS011;57635;49.194;12.104;2023-02-23T05:42:27;12.97;;;11.90;;
8088;SDS011;57635;49.194;12.104;2023-02-23T05:44:55;14.00;;;12.90;;
8088;SDS011;57635;49.194;12.104;2023-02-23T05:47:23;14.33;;;12.93;;
8088;SDS011;57635;49.194;12.104;2023-02-23T05:49:50;19.20;;;17.33;;
8088;SDS011;57635;49.194;12.104;2023-02-23T05:52:18;18.87;;;17.17;;
8088;SDS011;57635;49.194;12.104;2023-02-23T05:54:45;16.33;;;14.83;;
8088;SDS011;57635;49.194;12.104;2023-02-23T05:57:13;14.43;;;13.10;;
8088;SDS011;57635;49.194;12.104;2023-02-23T05:59:42;13.63;;;12.33;;
8088;SDS011;57635;49.194;12.104;2023-02-23T06:02:10;13.33;;;12.17;;
8088;SDS011;57635;49.194;12.104;2023-02-23T06:04:38;13.83;;;12.53;;
8088;SDS011;57635;49.194;12.104;2023-02-23T06:07:05;12.67;;;11.57;;
8088;SDS011;57635;49.194;12.104;2023-02-23T06:09:33;12.33;;;11.23;;
8088;SDS011;57635;49.194;12.104;2023-02-23T06:12:01;13.07;;;11.77;;
8088;SDS011;57635;49.194;12.104;2023-02-23T06:14:28;11.83;;;10.73;;
8088;SDS011;57635;49.194;12.104;2023-02-23T06:16:58;13.37;;;12.17;;
8088;SDS011;57635;49.194;12.104;2023-02-23T06:19:26;12.93;;;11.80;;
8088;SDS011;57635;49.194;12.104;2023-02-23T06:21:54;11.67;;;10.77;;
8088;SDS011;57635;49.194;12.104;2023-02-23T06:24:22;12.43;;;11.33;;
8088;SDS011;57635;49.194;12.104;2023-02-23T06:26:50;11.40;;;10.50;;
8088;SDS011;57635;49.194;12.104;2023-02-23T06:29:18;13.03;;;11.90;;
8088;SDS011;57635;49.194;12.104;2023-02-23T06:31:47;11.37;;;10.23;;
8088;SDS011;57635;49.194;12.104;2023-02-23T06:34:16;13.00;;;11.67;;
8088;SDS011;57635;49.194;12.104;2023-02-23T06:36:43;12.53;;;11.43;;
8088;SDS011;57635;49.194;12.104;2023-02-23T06:39:11;12.83;;;11.80;;
8088;SDS011;57635;49.194;12.104;2023-02-23T06:41:39;13.47;;;12.20;;
8088;SDS011;57635;49.194;12.104;2023-02-23T06:44:07;13.03;;;12.03;;
8088;SDS011;57635;49.194;12.104;2023-02-23T06:46:34;13.67;;;12.60;;
8088;SDS011;57635;49.194;12.104;2023-02-23T06:49:03;13.00;;;11.87;;
8088;SDS011;57635;49.194;12.104;2023-02-23T06:51:32;13.97;;;12.63;;
8088;SDS011;57635;49.194;12.104;2023-02-23T06:53:59;14.43;;;12.77;;
8088;SDS011;57635;49.194;12.104;2023-02-23T06:56:27;13.90;;;12.63;;
8088;SDS011;57635;49.194;12.104;2023-02-23T06:58:54;14.37;;;13.07;;
8088;SDS011;57635;49.194;12.104;2023-02-23T07:01:22;14.53;;;13.30;;
8088;SDS011;57635;49.194;12.104;2023-02-23T07:03:50;15.13;;;13.83;;
8088;SDS011;57635;49.194;12.104;2023-02-23T07:06:17;15.93;;;14.53;;
8088;SDS011;57635;49.194;12.104;2023-02-23T07:08:46;17.23;;;15.73;;
8088;SDS011;57635;49.194;12.104;2023-02-23T07:11:14;16.57;;;15.07;;
8088;SDS011;57635;49.194;12.104;2023-02-23T07:13:44;16.43;;;14.93;;
8088;SDS011;57635;49.194;12.104;2023-02-23T07:16:11;16.70;;;14.97;;
8088;SDS011;57635;49.194;12.104;2023-02-23T07:18:41;18.70;;;16.77;;
8088;SDS011;57635;49.194;12.104;2023-02-23T07:21:09;16.20;;;14.70;;
8088;SDS011;57635;49.194;12.104;2023-02-23T07:23:36;16.20;;;14.60;;
8088;SDS011;57635;49.194;12.104;2023-02-23T07:26:05;16.17;;;14.67;;
8088;SDS011;57635;49.194;12.104;2023-02-23T07:28:34;15.43;;;14.13;;
8088;SDS011;57635;49.194;12.104;2023-02-23T07:31:03;16.07;;;14.43;;
8088;SDS011;57635;49.194;12.104;2023-02-23T07:33:31;16.93;;;15.23;;
8088;SDS011;57635;49.194;12.104;2023-02-23T07:35:58;17.87;;;16.17;;
8088;SDS011;57635;49.194;12.104;2023-02-23T07:38:26;16.80;;;15.20;;
8088;SDS011;57635;49.194;12.104;2023-02-23T07:40:54;15.57;;;14.17;;
8088;SDS011;57635;49.194;12.104;2023-02-23T07:43:23;15.57;;;14.07;;
8088;SDS011;57635;49.194;12.104;2023-02-23T07:45:51;16.00;;;14.60;;
8088;SDS011;57635;49.194;12.104;2023-02-23T07:48:19;15.90;;;14.50;;
8088;SDS011;57635;49.194;12.104;2023-02-23T07:50:47;16.30;;;14.90;;
8088;SDS011;57635;49.194;12.104;2023-02-23T07:53:15;16.60;;;15.23;;
8088;SDS011;57635;49.194;12.104;2023-02-23T07:55:42;17.50;;;15.80;;
8088;SDS011;57635;49.194;12.104;2023-02-23T07:58:10;16.03;;;14.40;;
8088;SDS011;57635;49.194;12.104;2023-02-23T08:00:40;17.63;;;15.83;;
8088;SDS011;57635;49.194;12.104;2023-02-23T08:03:07;16.10;;;14.70;;
8088;SDS011;57635;49.194;12.104;2023-02-23T08:05:35;16.67;;;15.27;;
8088;SDS011;57635;49.194;12.104;2023-02-23T08:08:05;15.83;;;14.43;;
8088;SDS011;57635;49.194;12.104;2023-02-23T08:10:32;17.20;;;15.50;;
8088;SDS011;57635;49.194;12.104;2023-02-23T08:13:00;16.87;;;15.47;;
8088;SDS011;57635;49.194;12.104;2023-02-23T08:15:28;17.50;;;15.83;;
8088;SDS011;57635;49.194;12.104;2023-02-23T08:17:58;16.50;;;15.13;;
8088;SDS011;57635;49.194;12.104;2023-02-23T08:20:25;16.33;;;14.90;;
8088;SDS011;57635;49.194;12.104;2023-02-23T08:22:54;15.57;;;14.17;;
8088;SDS011;57635;49.194;12.104;2023-02-23T08:25:21;15.80;;;14.43;;
8088;SDS011;57635;49.194;12.104;2023-02-23T08:27:49;16.10;;;14.47;;
8088;SDS011;57635;49.194;12.104;2023-02-23T08:30:18;18.23;;;16.37;;
8088;SDS011;57635;49.194;12.104;2023-02-23T08:32:46;16.53;;;15.03;;
8088;SDS011;57635;49.194;12.104;2023-02-23T08:35:19;15.47;;;14.20;;
8088;SDS011;57635;49.194;12.104;2023-02-23T08:37:48;15.37;;;13.90;;
8088;SDS011;57635;49.194;12.104;2023-02-23T08:40:15;15.50;;;14.10;;
8088;SDS011;57635;49.194;12.104;2023-02-23T08:42:43;14.83;;;13.53;;
8088;SDS011;57635;49.194;12.104;2023-02-23T08:45:11;15.20;;;13.90;;
8088;SDS011;57635;49.194;12.104;2023-02-23T08:47:38;14.80;;;13.27;;
8088;SDS011;57635;49.194;12.104;2023-02-23T08:50:06;14.33;;;13.13;;
8088;SDS011;57635;49.194;12.104;2023-02-23T08:52:37;25.10;;;22.47;;
8088;SDS011;57635;49.194;12.104;2023-02-23T08:55:06;18.37;;;16.57;;
8088;SDS011;57635;49.194;12.104;2023-02-23T08:57:35;15.43;;;13.93;;
8088;SDS011;57635;49.194;12.104;2023-02-23T09:00:04;14.47;;;12.97;;
8088;SDS011;57635;49.194;12.104;2023-02-23T09:02:39;14.73;;;13.43;;
8088;SDS011;57635;49.194;12.104;2023-02-23T09:05:07;14.53;;;13.13;;
8088;SDS011;57635;49.194;12.104;2023-02-23T09:07:36;15.37;;;14.00;;
8088;SDS011;57635;49.194;12.104;2023-02-23T09:10:06;16.23;;;14.73;;
8088;SDS011;57635;49.194;12.104;2023-02-23T09:12:35;14.77;;;13.47;;
8088;SDS011;57635;49.194;12.104;2023-02-23T09:15:03;15.73;;;14.33;;
8088;SDS011;57635;49.194;12.104;2023-02-23T09:17:31;15.60;;;14.10;;
8088;SDS011;57635;49.194;12.104;2023-02-23T09:19:58;15.70;;;14.30;;
8088;SDS011;57635;49.194;12.104;2023-02-23T09:22:26;15.20;;;13.80;;
8088;SDS011;57635;49.194;12.104;2023-02-23T09:24:55;16.40;;;14.67;;
8088;SDS011;57635;49.194;12.104;2023-02-23T09:27:22;15.80;;;14.23;;
8088;SDS011;57635;49.194;12.104;2023-02-23T09:29:50;15.83;;;14.43;;
8088;SDS011;57635;49.194;12.104;2023-02-23T09:32:17;16.93;;;15.30;;
8088;SDS011;57635;49.194;12.104;2023-02-23T09:34:45;17.40;;;15.70;;
8088;SDS011;57635;49.194;12.104;2023-02-23T09:37:13;16.87;;;15.47;;
8088;SDS011;57635;49.194;12.104;2023-02-23T09:39:42;16.13;;;14.73;;
8088;SDS011;57635;49.194;12.104;2023-02-23T09:42:17;17.57;;;15.87;;
8088;SDS011;57635;49.194;12.104;2023-02-23T09:44:53;18.37;;;16.67;;
8088;SDS011;57635;49.194;12.104;2023-02-23T09:47:30;17.90;;;16.03;;
8088;SDS011;57635;49.194;12.104;2023-02-23T09:50:05;17.93;;;16.37;;
8088;SDS011;57635;49.194;12.104;2023-02-23T09:52:41;18.50;;;16.70;;
8088;SDS011;57635;49.194;12.104;2023-02-23T09:55:12;24.50;;;18.07;;
8088;SDS011;57635;49.194;12.104;2023-02-23T09:57:42;20.50;;;18.40;;
8088;SDS011;57635;49.194;12.104;2023-02-23T10:00:18;21.00;;;19.00;;
8088;SDS011;57635;49.194;12.104;2023-02-23T10:05:38;20.70;;;18.60;;
8088;SDS011;57635;49.194;12.104;2023-02-23T10:08:13;20.20;;;18.20;;
8088;SDS011;57635;49.194;12.104;2023-02-23T10:10:47;19.73;;;17.83;;
8088;SDS011;57635;49.194;12.104;2023-02-23T10:13:20;20.23;;;18.40;;
8088;SDS011;57635;49.194;12.104;2023-02-23T10:15:53;20.27;;;18.23;;
8088;SDS011;57635;49.194;12.104;2023-02-23T10:18:23;20.33;;;18.33;;
8088;SDS011;57635;49.194;12.104;2023-02-23T10:21:13;21.80;;;19.60;;
8088;SDS011;57635;49.194;12.104;2023-02-23T10:23:45;30.23;;;25.83;;
8088;SDS011;57635;49.194;12.104;2023-02-23T10:26:15;30.57;;;27.27;;
8088;SDS011;57635;49.194;12.104;2023-02-23T10:28:46;23.10;;;20.67;;
8088;SDS011;57635;49.194;12.104;2023-02-23T10:31:18;20.97;;;18.73;;
8088;SDS011;57635;49.194;12.104;2023-02-23T10:33:51;19.17;;;17.40;;
8088;SDS011;57635;49.194;12.104;2023-02-23T10:36:24;22.40;;;18.43;;
8088;SDS011;57635;49.194;12.104;2023-02-23T10:38:58;20.47;;;18.63;;
8088;SDS011;57635;49.194;12.104;2023-02-23T10:41:25;21.70;;;19.70;;
8088;SDS011;57635;49.194;12.104;2023-02-23T10:43:54;20.77;;;18.67;;
8088;SDS011;57635;49.194;12.104;2023-02-23T10:46:37;20.40;;;18.40;;
8088;SDS011;57635;49.194;12.104;2023-02-23T10:49:06;22.33;;;19.50;;
8088;SDS011;57635;49.194;12.104;2023-02-23T10:51:37;21.73;;;19.73;;
8088;SDS011;57635;49.194;12.104;2023-02-23T10:57:10;22.40;;;20.07;;
8088;SDS011;57635;49.194;12.104;2023-02-23T10:59:59;22.37;;;20.17;;
8088;SDS011;57635;49.194;12.104;2023-02-23T11:02:31;22.00;;;19.80;;
8088;SDS011;57635;49.194;12.104;2023-02-23T11:04:59;24.20;;;21.13;;
8088;SDS011;57635;49.194;12.104;2023-02-23T11:07:27;31.03;;;26.53;;
8088;SDS011;57635;49.194;12.104;2023-02-23T11:09:56;22.60;;;20.33;;
8088;SDS011;57635;49.194;12.104;2023-02-23T11:12:25;23.23;;;20.90;;
8088;SDS011;57635;49.194;12.104;2023-02-23T11:14:56;24.50;;;21.97;;
8088;SDS011;57635;49.194;12.104;2023-02-23T11:17:26;23.20;;;21.00;;
8088;SDS011;57635;49.194;12.104;2023-02-23T11:19:59;24.00;;;21.50;;
8088;SDS011;57635;49.194;12.104;2023-02-23T11:22:31;23.37;;;21.17;;
8088;SDS011;57635;49.194;12.104;2023-02-23T11:25:01;23.03;;;20.83;;
8088;SDS011;57635;49.194;12.104;2023-02-23T11:27:31;24.07;;;21.70;;
8088;SDS011;57635;49.194;12.104;2023-02-23T11:30:02;23.53;;;21.10;;
8088;SDS011;57635;49.194;12.104;2023-02-23T11:32:32;23.87;;;21.47;;
8088;SDS011;57635;49.194;12.104;2023-02-23T11:35:13;23.60;;;21.30;;
8088;SDS011;57635;49.194;12.104;2023-02-23T11:37:53;24.63;;;22.00;;
8088;SDS011;57635;49.194;12.104;2023-02-23T11:40:22;23.37;;;20.83;;
8088;SDS011;57635;49.194;12.104;2023-02-23T11:42:52;22.97;;;20.63;;
8088;SDS011;57635;49.194;12.104;2023-02-23T11:45:22;24.20;;;21.70;;
8088;SDS011;57635;49.194;12.104;2023-02-23T11:47:53;23.27;;;20.90;;
8088;SDS011;57635;49.194;12.104;2023-02-23T11:50:23;23.47;;;21.07;;
8088;SDS011;57635;49.194;12.104;2023-02-23T11:52:58;24.60;;;22.00;;
8088;SDS011;57635;49.194;12.104;2023-02-23T11:55:27;23.27;;;20.83;;
8088;SDS011;57635;49.194;12.104;2023-02-23T11:58:06;22.63;;;20.27;;
8088;SDS011;57635;49.194;12.104;2023-02-23T12:00:36;25.63;;;23.07;;
8088;SDS011;57635;49.194;12.104;2023-02-23T12:03:04;23.97;;;21.37;;
8088;SDS011;57635;49.194;12.104;2023-02-23T12:05:33;26.57;;;24.03;;
8088;SDS011;57635;49.194;12.104;2023-02-23T12:08:01;27.43;;;24.20;;
8088;SDS011;57635;49.194;12.104;2023-02-23T12:10:32;27.70;;;24.90;;
8088;SDS011;57635;49.194;12.104;2023-02-23T12:13:04;27.37;;;24.57;;
8088;SDS011;57635;49.194;12.104;2023-02-23T12:15:41;26.00;;;23.40;;
8088;SDS011;57635;49.194;12.104;2023-02-23T12:18:14;26.73;;;23.63;;
8088;SDS011;57635;49.194;12.104;2023-02-23T12:20:49;27.83;;;24.00;;
8088;SDS011;57635;49.194;12.104;2023-02-23T12:23:20;27.27;;;24.57;;
8088;SDS011;57635;49.194;12.104;2023-02-23T12:25:51;26.20;;;23.43;;
8088;SDS011;57635;49.194;12.104;2023-02-23T12:28:24;26.57;;;22.57;;
8088;SDS011;57635;49.194;12.104;2023-02-23T12:30:55;27.43;;;22.60;;
8088;SDS011;57635;49.194;12.104;2023-02-23T12:33:26;29.67;;;23.73;;
8088;SDS011;57635;49.194;12.104;2023-02-23T12:36:00;24.97;;;22.47;;
8088;SDS011;57635;49.194;12.104;2023-02-23T12:38:32;25.17;;;22.23;;
8088;SDS011;57635;49.194;12.104;2023-02-23T12:41:09;25.90;;;22.30;;
8088;SDS011;57635;49.194;12.104;2023-02-23T12:43:39;24.83;;;22.23;;
8088;SDS011;57635;49.194;12.104;2023-02-23T12:46:17;25.50;;;22.67;;
8088;SDS011;57635;49.194;12.104;2023-02-23T12:48:49;28.60;;;22.23;;
8088;SDS011;57635;49.194;12.104;2023-02-23T12:51:23;27.70;;;22.60;;
8088;SDS011;57635;49.194;12.104;2023-02-23T12:53:54;25.07;;;22.37;;
8088;SDS011;57635;49.194;12.104;2023-02-23T12:56:26;24.20;;;21.57;;
8088;SDS011;57635;49.194;12.104;2023-02-23T12:59:02;24.20;;;21.77;;
8088;SDS011;57635;49.194;12.104;2023-02-23T13:01:42;24.33;;;21.77;;
8088;SDS011;57635;49.194;12.104;2023-02-23T13:04:17;25.03;;;21.50;;
8088;SDS011;57635;49.194;12.104;2023-02-23T13:06:56;24.70;;;22.10;;
8088;SDS011;57635;49.194;12.104;2023-02-23T13:09:32;27.83;;;23.63;;
8088;SDS011;57635;49.194;12.104;2023-02-23T13:12:15;25.30;;;22.67;;
8088;SDS011;57635;49.194;12.104;2023-02-23T13:14:50;27.03;;;22.97;;
8088;SDS011;57635;49.194;12.104;2023-02-23T13:17:25;26.47;;;23.77;;
8088;SDS011;57635;49.194;12.104;2023-02-23T13:19:58;28.27;;;23.53;;
8088;SDS011;57635;49.194;12.104;2023-02-23T13:22:30;26.70;;;23.77;;
8088;SDS011;57635;49.194;12.104;2023-02-23T13:25:02;27.77;;;24.77;;
8088;SDS011;57635;49.194;12.104;2023-02-23T13:27:34;25.53;;;22.83;;
8088;SDS011;57635;49.194;12.104;2023-02-23T13:30:04;25.60;;;22.40;;
8088;SDS011;57635;49.194;12.104;2023-02-23T13:32:37;26.97;;;22.90;;
8088;SDS011;57635;49.194;12.104;2023-02-23T13:35:06;29.43;;;24.07;;
8088;SDS011;57635;49.194;12.104;2023-02-23T13:37:38;28.13;;;23.13;;
8088;SDS011;57635;49.194;12.104;2023-02-23T13:40:14;27.03;;;23.50;;
8088;SDS011;57635;49.194;12.104;2023-02-23T13:42:47;26.77;;;23.13;;
8088;SDS011;57635;49.194;12.104;2023-02-23T13:45:29;26.67;;;22.63;;
8088;SDS011;57635;49.194;12.104;2023-02-23T13:48:05;30.77;;;23.10;;
8088;SDS011;57635;49.194;12.104;2023-02-23T13:50:45;29.10;;;23.50;;
8088;SDS011;57635;49.194;12.104;2023-02-23T13:56:05;27.00;;;24.10;;
8088;SDS011;57635;49.194;12.104;2023-02-23T13:58:34;26.20;;;23.43;;
8088;SDS011;57635;49.194;12.104;2023-02-23T14:01:03;26.17;;;23.43;;
8088;SDS011;57635;49.194;12.104;2023-02-23T14:03:38;30.37;;;24.13;;
8088;SDS011;57635;49.194;12.104;2023-02-23T14:06:10;35.10;;;26.83;;
8088;SDS011;57635;49.194;12.104;2023-02-23T14:08:39;32.00;;;24.63;;
8088;SDS011;57635;49.194;12.104;2023-02-23T14:11:08;29.73;;;25.87;;
8088;SDS011;57635;49.194;12.104;2023-02-23T14:13:38;35.50;;;31.67;;
8088;SDS011;57635;49.194;12.104;2023-02-23T14:16:11;30.27;;;25.70;;
8088;SDS011;57635;49.194;12.104;2023-02-23T14:18:52;29.33;;;26.17;;
8088;SDS011;57635;49.194;12.104;2023-02-23T14:21:27;26.57;;;23.33;;
8088;SDS011;57635;49.194;12.104;2023-02-23T14:24:04;30.37;;;24.87;;
8088;SDS011;57635;49.194;12.104;2023-02-23T14:26:43;26.60;;;23.17;;
8088;SDS011;57635;49.194;12.104;2023-02-23T14:29:35;30.03;;;23.03;;
8088;SDS011;57635;49.194;12.104;2023-02-23T14:32:28;31.07;;;23.63;;
8088;SDS011;57635;49.194;12.104;2023-02-23T14:34:58;25.90;;;23.33;;
8088;SDS011;57635;49.194;12.104;2023-02-23T14:37:28;24.80;;;22.30;;
8088;SDS011;57635;49.194;12.104;2023-02-23T14:40:06;28.67;;;24.43;;
8088;SDS011;57635;49.194;12.104;2023-02-23T14:42:38;29.07;;;23.80;;
8088;SDS011;57635;49.194;12.104;2023-02-23T14:45:15;26.87;;;23.40;;
8088;SDS011;57635;49.194;12.104;2023-02-23T14:47:46;27.33;;;24.37;;
8088;SDS011;57635;49.194;12.104;2023-02-23T14:50:17;30.27;;;23.97;;
8088;SDS011;57635;49.194;12.104;2023-02-23T14:52:50;26.13;;;23.50;;
8088;SDS011;57635;49.194;12.104;2023-02-23T14:55:20;25.97;;;23.10;;
8088;SDS011;57635;49.194;12.104;2023-02-23T14:57:49;30.27;;;23.10;;
8088;SDS011;57635;49.194;12.104;2023-02-23T15:00:19;25.63;;;23.03;;
8088;SDS011;57635;49.194;12.104;2023-02-23T15:02:52;26.13;;;23.53;;
8088;SDS011;57635;49.194;12.104;2023-02-23T15:05:27;27.17;;;24.10;;
8088;SDS011;57635;49.194;12.104;2023-02-23T15:07:56;28.03;;;23.10;;
8088;SDS011;57635;49.194;12.104;2023-02-23T15:10:27;29.77;;;26.67;;